Terminal Aerodrome Forecast
Issued by NWS

Home | Current Version | Previous Version | Text Only | Print | Product List | Glossary On
Versions: 1 2 3 4 5 6 7 8 9 10 11 12 13
000
FTUS46 KLOX 280000 RRA
TAFPRB
TAF
KPRB 280000Z 2800/2824 09006KT P6SM BKN060
     FM280400 VRB03KT P6SM SCT060 BKN250
     FM280800 VRB03KT 6SM BR SCT001 BKN250
     FM281000 VRB03KT 1/2SM FG VV001
     FM281900 09008KT P6SM SCT060 BKN250=

USA.gov is the U.S. government's official web portal to all federal, state and local government web resources and services.